createdAt,value
2017-11-13T00:00:14.111Z,97442.89
2017-11-13T00:02:48.804Z,97457.72
2017-11-13T00:05:23.275Z,97475.45
2017-11-13T00:07:57.949Z,97501.25
2017-11-13T00:10:32.388Z,97489.12
2017-11-13T00:13:06.352Z,97488.93
2017-11-13T00:15:40.844Z,97503.17
2017-11-13T00:18:15.323Z,97498.38
2017-11-13T00:20:49.723Z,97524.08
2017-11-13T00:23:24.215Z,97513.05
2017-11-13T00:25:58.727Z,97485.09
2017-11-13T00:28:33.185Z,97478.31
2017-11-13T00:31:08.064Z,97531.47
2017-11-13T00:33:42.512Z,97526.02
2017-11-13T00:36:16.906Z,97510.02
2017-11-13T00:38:51.360Z,97547.59
2017-11-13T00:41:25.764Z,97556.09
2017-11-13T00:44:00.264Z,97563.55
2017-11-13T00:46:34.792Z,97553.33
2017-11-13T00:49:09.403Z,97571.69
2017-11-13T00:51:43.825Z,97606.64
2017-11-13T00:54:18.828Z,97609.31
2017-11-13T00:56:53.210Z,97565.42
2017-11-13T00:59:28.175Z,97574.42
2017-11-13T01:02:03.047Z,97560.10
2017-11-13T01:04:37.623Z,97532.14
2017-11-13T01:07:12.029Z,97657.90
2017-11-13T01:09:46.888Z,97652.79
2017-11-13T01:12:21.366Z,97632.11
2017-11-13T01:14:55.783Z,97671.73
2017-11-13T01:17:30.248Z,97671.32
2017-11-13T01:20:14.099Z,97709.56
2017-11-13T01:22:48.607Z,97714.06
2017-11-13T01:25:23.200Z,97711.64
2017-11-13T01:27:57.621Z,97723.69
2017-11-13T01:30:32.003Z,97728.19
2017-11-13T01:33:05.849Z,97722.45
2017-11-13T01:35:40.268Z,97717.91
2017-11-13T01:38:14.759Z,97710.03
2017-11-13T01:40:49.213Z,97703.70
2017-11-13T01:43:23.709Z,97713.97
2017-11-13T01:45:58.160Z,97711.34
2017-11-13T01:48:32.416Z,97698.95
2017-11-13T01:51:06.862Z,97688.95
2017-11-13T01:53:41.509Z,97688.15
2017-11-13T01:56:15.907Z,97691.75
2017-11-13T01:58:50.385Z,97663.36
2017-11-13T02:01:24.908Z,97681.79
2017-11-13T02:03:59.331Z,97679.66
2017-11-13T02:06:33.199Z,97663.83
2017-11-13T02:09:07.347Z,97672.62
2017-11-13T02:11:41.749Z,97685.02
2017-11-13T02:14:16.447Z,97685.30
2017-11-13T02:16:50.859Z,97677.47
2017-11-13T02:19:25.232Z,97689.87
2017-11-13T02:21:59.491Z,97695.56
2017-11-13T02:24:34.013Z,97713.42
2017-11-13T02:27:08.155Z,97711.99
2017-11-13T02:29:42.441Z,97717.59
2017-11-13T02:32:16.584Z,97717.52
2017-11-13T02:34:50.774Z,97720.26
2017-11-13T02:37:25.308Z,97709.28
2017-11-13T02:39:59.802Z,97741.98
2017-11-13T02:42:33.994Z,97756.19
2017-11-13T02:45:15.285Z,97747.83
2017-11-13T02:47:49.180Z,97750.02
2017-11-13T02:50:23.136Z,97758.69
2017-11-13T02:52:57.344Z,97745.23
2017-11-13T02:55:31.699Z,97777.68
2017-11-13T02:58:05.648Z,97791.91
2017-11-13T03:00:40.138Z,97810.84
2017-11-13T03:03:14.436Z,97802.53
2017-11-13T03:05:48.884Z,97820.02
2017-11-13T03:08:23.552Z,97826.92
2017-11-13T03:10:58.040Z,97831.44
2017-11-13T03:13:32.605Z,97849.13
2017-11-13T03:16:07.462Z,97852.61
2017-11-13T03:18:42.183Z,97851.59
2017-11-13T03:21:16.627Z,97826.20
2017-11-13T03:23:51.294Z,97881.56
2017-11-13T03:26:25.889Z,97870.00
2017-11-13T03:29:00.503Z,97875.30
2017-11-13T03:31:35.024Z,97895.51
2017-11-13T03:34:09.507Z,97898.88
2017-11-13T03:36:44.012Z,97901.92
2017-11-13T03:39:18.475Z,97901.48
2017-11-13T03:41:52.983Z,97902.43
2017-11-13T03:44:27.510Z,97912.13
2017-11-13T03:47:02.030Z,97908.98
2017-11-13T03:49:36.783Z,97912.86
2017-11-13T03:52:11.245Z,97928.97
2017-11-13T03:54:45.767Z,97913.56
2017-11-13T03:57:20.248Z,97928.70
2017-11-13T03:59:54.722Z,97922.41
2017-11-13T04:02:29.175Z,97913.41
2017-11-13T04:07:48.022Z,97898.58
2017-11-13T04:10:22.863Z,97909.73
2017-11-13T04:12:57.521Z,97907.22
2017-11-13T04:15:31.935Z,97916.80
2017-11-13T04:18:06.449Z,97920.53
2017-11-13T04:20:40.851Z,97925.30
2017-11-13T04:23:15.104Z,97918.29
2017-11-13T04:25:49.487Z,97933.45
2017-11-13T04:28:24.149Z,97932.25
2017-11-13T04:30:59.207Z,97939.59
2017-11-13T04:33:34.515Z,97953.67
2017-11-13T04:36:08.900Z,97925.23
2017-11-13T04:38:43.331Z,97925.23
2017-11-13T04:41:17.813Z,97938.94
2017-11-13T04:43:52.365Z,97952.91
2017-11-13T04:46:26.751Z,97929.03
2017-11-13T04:49:01.434Z,97968.88
2017-11-13T04:51:36.143Z,97961.84
2017-11-13T04:54:10.728Z,97966.65
2017-11-13T04:56:45.128Z,97968.80
2017-11-13T04:59:19.541Z,97972.67
2017-11-13T05:01:53.922Z,97989.30
2017-11-13T05:04:28.509Z,97993.55
2017-11-13T05:07:03.000Z,98001.69
2017-11-13T05:09:37.250Z,98009.92
2017-11-13T05:12:11.663Z,97999.42
2017-11-13T05:14:46.135Z,98007.23
2017-11-13T05:17:20.659Z,98003.55
2017-11-13T05:19:55.159Z,98014.06
2017-11-13T05:22:29.540Z,98004.50
2017-11-13T05:27:44.064Z,98003.55
2017-11-13T05:30:18.139Z,97999.70
2017-11-13T05:32:52.731Z,97993.56
2017-11-13T05:35:27.214Z,98009.02
2017-11-13T05:38:01.783Z,98002.36
2017-11-13T05:40:36.171Z,98019.14
2017-11-13T05:43:10.623Z,98014.61
2017-11-13T05:45:45.122Z,98007.83
2017-11-13T05:48:19.882Z,98025.26
2017-11-13T05:50:54.531Z,98011.70
2017-11-13T05:53:29.252Z,97995.45
2017-11-13T05:56:04.416Z,98009.02
2017-11-13T05:58:38.931Z,98024.20
2017-11-13T06:01:13.343Z,98009.02
2017-11-13T06:03:47.852Z,98021.13
2017-11-13T06:06:22.324Z,98015.83
2017-11-13T06:08:56.952Z,98038.98
2017-11-13T06:11:31.377Z,98031.66
2017-11-13T06:14:06.024Z,98050.44
2017-11-13T06:16:40.466Z,98056.04
2017-11-13T06:19:14.980Z,98068.68
2017-11-13T06:21:49.391Z,98072.80
2017-11-13T06:24:24.024Z,98077.07
2017-11-13T06:26:58.640Z,98081.34
2017-11-13T06:29:33.036Z,98091.58
2017-11-13T06:32:07.475Z,98093.55
2017-11-13T06:34:42.062Z,98095.03
2017-11-13T06:37:16.533Z,98092.92
2017-11-13T06:39:51.091Z,98094.78
2017-11-13T06:42:26.283Z,98114.09
2017-11-13T06:45:00.887Z,98122.22
2017-11-13T06:47:35.367Z,98101.55
2017-11-13T06:50:21.589Z,98105.31
2017-11-13T06:52:56.031Z,98107.02
2017-11-13T06:55:30.495Z,98108.34
2017-11-13T06:58:05.100Z,98105.69
2017-11-13T07:00:39.564Z,98114.48
2017-11-13T07:03:14.111Z,98121.27
2017-11-13T07:05:48.384Z,98125.77
2017-11-13T07:08:22.893Z,98111.97
2017-11-13T07:10:57.683Z,98114.31
2017-11-13T07:13:32.174Z,98131.80
2017-11-13T07:16:06.588Z,98144.16
2017-11-13T07:18:41.003Z,98140.97
2017-11-13T07:21:15.421Z,98139.50
2017-11-13T07:23:50.039Z,98127.24
2017-11-13T07:26:24.275Z,98153.50
2017-11-13T07:28:58.720Z,98158.41
2017-11-13T07:31:32.937Z,98160.40
2017-11-13T07:34:07.353Z,98164.81
2017-11-13T07:36:41.619Z,98174.80
2017-11-13T07:39:16.263Z,98173.58
2017-11-13T07:41:50.657Z,98160.67
2017-11-13T07:44:25.163Z,98168.92
2017-11-13T07:46:59.579Z,98171.20
2017-11-13T07:49:34.207Z,98168.52
2017-11-13T07:52:08.679Z,98195.70
2017-11-13T07:54:43.312Z,98202.76
2017-11-13T07:57:17.821Z,98165.50
2017-11-13T07:59:52.194Z,98219.13
2017-11-13T08:02:26.694Z,98212.19
2017-11-13T08:05:01.345Z,98227.53
2017-11-13T08:07:35.933Z,98204.75
2017-11-13T08:10:15.136Z,98192.37
2017-11-13T08:12:49.532Z,98197.44
2017-11-13T08:15:24.051Z,98216.19
2017-11-13T08:17:58.526Z,98216.47
2017-11-13T08:20:32.965Z,98222.31
2017-11-13T08:23:07.394Z,98202.48
2017-11-13T08:25:41.877Z,98205.00
2017-11-13T08:28:16.501Z,98194.33
2017-11-13T08:30:50.724Z,98219.38
2017-11-13T08:33:24.728Z,98217.12
2017-11-13T08:35:58.964Z,98207.66
2017-11-13T08:38:33.551Z,98240.69
2017-11-13T08:41:07.941Z,98248.28
2017-11-13T08:43:42.431Z,98223.38
2017-11-13T08:46:16.960Z,98247.34
2017-11-13T08:48:51.329Z,98260.25
2017-11-13T08:51:25.780Z,98251.33
2017-11-13T08:54:00.568Z,98265.47
2017-11-13T08:56:35.059Z,98264.52
2017-11-13T08:59:09.619Z,98270.80
2017-11-13T09:01:44.043Z,98281.06
2017-11-13T09:04:18.722Z,98289.84
2017-11-13T09:06:53.117Z,98314.34
2017-11-13T09:09:27.584Z,98312.23
2017-11-13T09:12:02.107Z,98315.03
2017-11-13T09:14:36.731Z,98325.01
2017-11-13T09:17:11.247Z,98328.34
2017-11-13T09:19:45.819Z,98337.42
2017-11-13T09:22:20.290Z,98300.90
2017-11-13T09:24:54.739Z,98331.27
2017-11-13T09:27:28.776Z,98343.28
2017-11-13T09:32:44.964Z,98362.98
2017-11-13T09:35:19.462Z,98358.98
2017-11-13T09:37:53.888Z,98316.34
2017-11-13T09:40:28.287Z,98355.24
2017-11-13T09:43:03.056Z,98364.84
2017-11-13T09:45:37.570Z,98373.25
2017-11-13T09:48:12.172Z,98377.52
2017-11-13T09:50:46.611Z,98371.25
2017-11-13T09:53:21.068Z,98374.99
2017-11-13T09:55:55.563Z,98376.30
2017-11-13T09:58:30.056Z,98392.04
2017-11-13T10:01:04.511Z,98390.70
2017-11-13T10:03:38.928Z,98352.86
2017-11-13T10:06:13.347Z,98381.38
2017-11-13T10:08:47.464Z,98384.84
2017-11-13T10:11:21.660Z,98379.38
2017-11-13T10:13:56.228Z,98364.84
2017-11-13T10:16:30.533Z,98365.11
2017-11-13T10:19:04.838Z,98356.86
2017-11-13T10:21:39.243Z,98370.20
2017-11-13T10:24:13.573Z,98382.97
2017-11-13T10:26:47.789Z,98380.59
2017-11-13T10:29:22.474Z,98374.85
2017-11-13T10:31:56.840Z,98372.48
2017-11-13T10:34:31.290Z,98371.27
2017-11-13T10:37:05.794Z,98369.02
2017-11-13T10:39:40.451Z,98369.69
2017-11-13T10:42:14.903Z,98385.42
2017-11-13T10:44:49.410Z,98373.63
2017-11-13T10:47:23.844Z,98399.53
2017-11-13T10:49:58.904Z,98386.06
2017-11-13T10:52:32.978Z,98379.28
2017-11-13T10:55:13.750Z,98372.75
2017-11-13T10:57:48.184Z,98369.41
2017-11-13T11:00:22.095Z,98360.36
2017-11-13T11:02:56.303Z,98346.37
2017-11-13T11:05:30.640Z,98381.28
2017-11-13T11:08:05.279Z,98408.74
2017-11-13T11:10:40.411Z,98391.00
2017-11-13T11:13:15.014Z,98402.33
2017-11-13T11:15:54.933Z,98403.27
2017-11-13T11:18:29.251Z,98411.55
2017-11-13T11:21:15.860Z,98437.01
2017-11-13T11:23:51.740Z,98425.55
2017-11-13T11:26:28.635Z,98425.80
2017-11-13T11:29:03.240Z,98439.66
2017-11-13T11:31:37.880Z,98414.59
2017-11-13T11:37:30.570Z,98425.26
2017-11-13T11:40:05.195Z,98416.73
2017-11-13T11:42:41.802Z,98420.33
2017-11-13T11:45:19.897Z,98433.52
2017-11-13T11:47:56.732Z,98426.31
2017-11-13T11:50:31.028Z,98450.72
2017-11-13T11:53:05.488Z,98446.20
2017-11-13T11:58:47.586Z,98458.84
2017-11-13T12:01:21.954Z,98458.45
2017-11-13T12:03:57.148Z,98470.84
2017-11-13T12:06:32.452Z,98474.44
2017-11-13T12:09:06.959Z,98492.85
2017-11-13T12:11:41.415Z,98490.58
2017-11-13T12:14:15.991Z,98471.52
2017-11-13T12:16:50.583Z,98484.45
2017-11-13T12:19:25.023Z,98492.17
2017-11-13T12:21:59.431Z,98488.73
2017-11-13T12:24:33.924Z,98490.03
2017-11-13T12:27:08.788Z,98512.29
2017-11-13T12:29:43.456Z,98520.28
2017-11-13T12:32:17.941Z,98527.52
2017-11-13T12:34:52.467Z,98527.11
2017-11-13T12:37:26.962Z,98511.64
2017-11-13T12:40:01.580Z,98520.81
2017-11-13T12:42:36.184Z,98474.48
2017-11-13T12:45:15.640Z,98526.83
2017-11-13T12:47:49.844Z,98527.78
2017-11-13T12:50:24.316Z,98528.97
2017-11-13T12:52:59.281Z,98529.50
2017-11-13T12:55:35.202Z,98531.88
2017-11-13T12:58:09.777Z,98547.22
2017-11-13T13:00:44.344Z,98545.61
2017-11-13T13:03:18.346Z,98563.78
2017-11-13T13:05:52.961Z,98561.77
2017-11-13T13:08:27.476Z,98567.06
2017-11-13T13:11:01.973Z,98575.46
2017-11-13T13:13:36.495Z,98562.57
2017-11-13T13:16:10.984Z,98577.20
2017-11-13T13:18:45.488Z,98563.66
2017-11-13T13:21:19.980Z,98566.41
2017-11-13T13:23:54.352Z,98565.77
2017-11-13T13:26:28.836Z,98563.91
2017-11-13T13:29:03.280Z,98555.22
2017-11-13T13:31:37.748Z,98585.63
2017-11-13T13:34:12.264Z,98584.67
2017-11-13T13:36:46.744Z,98578.01
2017-11-13T13:39:21.326Z,98579.87
2017-11-13T13:41:55.723Z,98601.63
2017-11-13T13:44:29.948Z,98607.62
2017-11-13T13:47:04.414Z,98596.30
2017-11-13T13:49:38.916Z,98600.18
2017-11-13T13:52:13.370Z,98601.11
2017-11-13T13:54:47.991Z,98596.05
2017-11-13T13:57:22.396Z,98596.59
2017-11-13T13:59:56.938Z,98604.59
2017-11-13T14:02:31.519Z,98602.45
2017-11-13T14:05:14.283Z,98611.50
2017-11-13T14:07:48.797Z,98615.77
2017-11-13T14:10:23.239Z,98612.02
2017-11-13T14:12:57.791Z,98610.92
2017-11-13T14:15:32.379Z,98633.23
2017-11-13T14:18:07.361Z,98635.36
2017-11-13T14:20:41.881Z,98650.80
2017-11-13T14:23:16.591Z,98639.09
2017-11-13T14:25:50.989Z,98646.11
2017-11-13T14:28:25.452Z,98663.20
2017-11-13T14:31:00.001Z,98672.01
2017-11-13T14:33:34.589Z,98675.59
2017-11-13T14:36:08.988Z,98668.81
2017-11-13T14:38:44.015Z,98677.73
2017-11-13T14:41:18.447Z,98672.12
2017-11-13T14:43:52.999Z,98700.63
2017-11-13T14:46:27.389Z,98725.42
2017-11-13T14:49:02.013Z,98724.50
2017-11-13T14:51:36.575Z,98746.07
2017-11-13T14:54:11.260Z,98756.09
2017-11-13T14:56:45.871Z,98766.19
2017-11-13T14:59:20.421Z,98773.42
2017-11-13T15:01:54.897Z,98764.33
2017-11-13T15:04:29.396Z,98761.41
2017-11-13T15:07:03.935Z,98769.81
2017-11-13T15:09:38.424Z,98782.34
2017-11-13T15:12:12.831Z,98773.94
2017-11-13T15:14:47.375Z,98782.97
2017-11-13T15:17:21.789Z,98789.11
2017-11-13T15:19:56.285Z,98781.13
2017-11-13T15:22:30.972Z,98780.70
2017-11-13T15:25:06.079Z,98781.72
2017-11-13T15:27:40.691Z,98780.91
2017-11-13T15:30:15.407Z,98785.02
2017-11-13T15:32:49.915Z,98781.44
2017-11-13T15:35:24.375Z,98771.91
2017-11-13T15:37:58.883Z,98766.97
2017-11-13T15:40:33.371Z,98788.89
2017-11-13T15:43:07.975Z,98810.73
2017-11-13T15:45:42.445Z,98805.13
2017-11-13T15:48:17.039Z,98804.59
2017-11-13T15:50:51.419Z,98786.86
2017-11-13T15:53:25.988Z,98801.39
2017-11-13T15:56:00.448Z,98791.16
2017-11-13T15:58:34.880Z,98791.66
2017-11-13T16:01:10.749Z,98805.39
2017-11-13T16:03:45.298Z,98803.84
2017-11-13T16:06:19.799Z,98806.09
2017-11-13T16:08:54.322Z,98819.94
2017-11-13T16:11:28.724Z,98813.60
2017-11-13T16:14:03.239Z,98820.86
2017-11-13T16:16:37.809Z,98826.33
2017-11-13T16:19:12.223Z,98825.56
2017-11-13T16:21:46.704Z,98834.71
2017-11-13T16:24:21.654Z,98846.06
2017-11-13T16:26:56.113Z,98842.89
2017-11-13T16:29:30.611Z,98839.53
2017-11-13T16:32:05.075Z,98830.71
2017-11-13T16:34:39.416Z,98833.66
2017-11-13T16:37:13.815Z,98844.56
2017-11-13T16:39:48.199Z,98778.66
2017-11-13T16:42:22.607Z,98841.38
2017-11-13T16:44:57.543Z,98844.07
2017-11-13T16:47:31.899Z,98858.02
2017-11-13T16:50:09.563Z,98862.81
2017-11-13T16:52:44.098Z,98865.36
2017-11-13T16:55:18.682Z,98865.77
2017-11-13T16:57:53.236Z,98867.22
2017-11-13T17:00:28.092Z,98891.93
2017-11-13T17:03:02.563Z,98896.02
2017-11-13T17:05:36.960Z,98916.24
2017-11-13T17:08:11.575Z,98912.94
2017-11-13T17:10:46.027Z,98916.34
2017-11-13T17:13:20.463Z,98905.43
2017-11-13T17:15:54.881Z,98917.30
2017-11-13T17:18:29.883Z,98891.17
2017-11-13T17:21:04.343Z,98914.45
2017-11-13T17:23:38.968Z,98915.52
2017-11-13T17:26:13.395Z,98918.83
2017-11-13T17:28:48.091Z,98947.34
2017-11-13T17:31:22.556Z,98951.47
2017-11-13T17:33:57.150Z,98961.83
2017-11-13T17:36:31.419Z,98960.64
2017-11-13T17:39:05.230Z,98966.09
2017-11-13T17:41:40.066Z,98962.23
2017-11-13T17:44:14.539Z,98954.34
2017-11-13T17:46:48.923Z,98978.48
2017-11-13T17:49:23.499Z,98980.58
2017-11-13T17:51:57.890Z,98993.95
2017-11-13T17:54:32.269Z,98995.95
2017-11-13T17:57:06.638Z,99002.34
2017-11-13T17:59:41.140Z,98999.30
2017-11-13T18:02:15.377Z,99009.77
2017-11-13T18:04:49.825Z,99002.97
2017-11-13T18:07:24.253Z,99003.61
2017-11-13T18:09:58.823Z,98995.70
2017-11-13T18:12:33.208Z,98990.86
2017-11-13T18:15:09.618Z,98846.70
2017-11-13T18:17:44.257Z,98998.82
2017-11-13T18:20:18.632Z,98995.03
2017-11-13T18:22:53.059Z,99000.31
2017-11-13T18:25:27.484Z,98999.50
2017-11-13T18:28:02.058Z,98994.30
2017-11-13T18:30:36.950Z,98999.86
2017-11-13T18:33:11.615Z,99003.05
2017-11-13T18:35:46.117Z,99005.69
2017-11-13T18:38:20.651Z,98996.45
2017-11-13T18:40:55.060Z,99027.36
2017-11-13T18:43:29.519Z,99027.25
2017-11-13T18:46:03.911Z,98988.94
2017-11-13T18:48:38.800Z,99021.52
2017-11-13T18:51:13.300Z,99030.92
2017-11-13T18:53:47.940Z,99035.99
2017-11-13T18:56:22.366Z,99044.50
2017-11-13T18:58:56.849Z,99050.33
2017-11-13T19:01:31.277Z,99053.73
2017-11-13T19:04:05.992Z,99064.22
2017-11-13T19:06:40.800Z,99073.69
2017-11-13T19:09:15.356Z,99063.70
2017-11-13T19:11:49.744Z,99059.84
2017-11-13T19:14:24.260Z,99092.38
2017-11-13T19:16:58.647Z,99093.69
2017-11-13T19:19:33.396Z,99093.92
2017-11-13T19:22:07.811Z,99100.49
2017-11-13T19:24:42.579Z,99105.64
2017-11-13T19:27:17.070Z,99095.86
2017-11-13T19:29:52.036Z,99117.83
2017-11-13T19:32:26.412Z,99124.92
2017-11-13T19:35:00.925Z,99132.89
2017-11-13T19:37:35.390Z,99135.95
2017-11-13T19:40:10.223Z,99141.55
2017-11-13T19:42:44.665Z,99139.28
2017-11-13T19:45:19.031Z,99140.84
2017-11-13T19:47:53.453Z,99138.45
2017-11-13T19:50:27.908Z,99136.19
2017-11-13T19:53:02.295Z,99151.84
2017-11-13T19:55:36.712Z,99127.78
2017-11-13T19:58:11.301Z,99147.23
2017-11-13T20:00:45.803Z,99137.63
2017-11-13T20:03:20.339Z,99138.44
2017-11-13T20:05:54.767Z,99138.72
2017-11-13T20:08:29.323Z,99129.94
2017-11-13T20:11:03.827Z,99140.28
2017-11-13T20:13:38.430Z,99138.40
2017-11-13T20:16:12.875Z,99145.76
2017-11-13T20:18:47.412Z,99155.13
2017-11-13T20:21:22.039Z,99158.71
2017-11-13T20:23:56.426Z,99151.80
2017-11-13T20:26:30.884Z,99146.87
2017-11-13T20:29:05.360Z,99154.54
2017-11-13T20:31:39.746Z,99165.27
2017-11-13T20:34:14.187Z,99156.61
2017-11-13T20:36:48.700Z,99162.05
2017-11-13T20:39:23.251Z,99161.13
2017-11-13T20:41:57.660Z,99156.25
2017-11-13T20:44:32.096Z,99164.83
2017-11-13T20:47:07.144Z,99166.12
2017-11-13T20:49:41.540Z,99157.30
2017-11-13T20:52:15.966Z,99150.67
2017-11-13T20:54:50.266Z,99164.45
2017-11-13T20:57:24.748Z,99172.73
2017-11-13T20:59:59.134Z,99162.42
2017-11-13T21:02:33.436Z,99174.34
2017-11-13T21:05:15.364Z,99191.34
2017-11-13T21:07:50.060Z,99195.82
2017-11-13T21:10:24.517Z,99189.02
2017-11-13T21:12:58.948Z,99187.58
2017-11-13T21:15:33.402Z,99186.44
2017-11-13T21:18:07.912Z,99193.86
2017-11-13T21:20:42.331Z,99198.41
2017-11-13T21:23:16.919Z,99201.73
2017-11-13T21:25:51.344Z,99210.65
2017-11-13T21:28:25.904Z,99202.81
2017-11-13T21:31:00.315Z,99203.33
2017-11-13T21:33:34.784Z,99212.64
2017-11-13T21:36:09.271Z,99208.77
2017-11-13T21:38:43.880Z,99208.31
2017-11-13T21:41:18.332Z,99212.83
2017-11-13T21:43:52.815Z,99206.98
2017-11-13T21:46:27.302Z,99232.41
2017-11-13T21:49:01.741Z,99229.83
2017-11-13T21:51:36.139Z,99243.53
2017-11-13T21:54:10.679Z,99247.64
2017-11-13T21:56:45.203Z,99262.80
2017-11-13T21:59:19.800Z,99253.63
2017-11-13T22:01:54.259Z,99264.75
2017-11-13T22:04:28.708Z,99270.22
2017-11-13T22:07:03.096Z,99276.17
2017-11-13T22:09:37.727Z,99271.95
2017-11-13T22:12:12.170Z,99275.54
2017-11-13T22:14:46.934Z,99282.82
2017-11-13T22:17:21.363Z,99290.89
2017-11-13T22:19:55.964Z,99292.29
2017-11-13T22:22:30.432Z,99286.97
2017-11-13T22:25:13.583Z,99302.94
2017-11-13T22:27:48.430Z,99304.22
2017-11-13T22:30:22.836Z,99304.81
2017-11-13T22:32:56.839Z,99297.61
2017-11-13T22:35:31.218Z,99295.56
2017-11-13T22:38:05.807Z,99293.88
2017-11-13T22:40:40.331Z,99291.77
2017-11-13T22:43:14.727Z,99296.90
2017-11-13T22:45:48.980Z,99300.01
2017-11-13T22:48:23.567Z,99303.70
2017-11-13T22:50:58.088Z,99266.52
2017-11-13T22:53:32.531Z,99314.73
2017-11-13T22:56:07.014Z,99316.25
2017-11-13T22:58:41.527Z,99332.48
2017-11-13T23:01:15.995Z,99330.48
2017-11-13T23:03:50.533Z,99350.44
2017-11-13T23:06:25.127Z,99343.66
2017-11-13T23:08:59.752Z,99351.70
2017-11-13T23:11:34.150Z,99351.99
2017-11-13T23:14:08.780Z,99334.05
2017-11-13T23:16:43.250Z,99336.98
2017-11-13T23:19:17.790Z,99330.17
2017-11-13T23:21:52.292Z,99330.28
2017-11-13T23:24:26.684Z,99321.85
2017-11-13T23:27:01.132Z,99313.42
2017-11-13T23:29:35.555Z,99327.34
2017-11-13T23:32:09.965Z,99330.18
2017-11-13T23:34:44.554Z,99326.95
2017-11-13T23:37:18.967Z,99340.89
2017-11-13T23:39:53.563Z,99338.12
2017-11-13T23:42:27.862Z,99337.70
2017-11-13T23:45:02.291Z,99330.09
2017-11-13T23:47:36.786Z,99333.31
2017-11-13T23:50:14.803Z,99331.41
2017-11-13T23:52:49.315Z,99338.76
2017-11-13T23:55:23.641Z,99355.39
2017-11-13T23:57:58.305Z,99358.59
